Time;durP1;ratioP1;P1;durP2;ratioP2;P2;SDS_P1;SDS_P2;PMS_P1;PMS_P2;Temp;Humidity;BMP_temperature;BMP_pressure;BME280_temperature;BME280_humidity;BME280_pressure;Samples;Min_cycle;Max_cycle;Signal;HPM_P1;HPM_P2
2023/05/13 00:00:53;;;;;;;21.65;14.77;;;;;;;21.61;52.83;102272.31;5026781;28;20058;-34
2023/05/13 00:03:20;;;;;;;19.67;13.70;;;;;;;21.60;52.92;102278.72;5022266;28;20056;-34
2023/05/13 00:05:47;;;;;;;20.67;14.07;;;;;;;21.59;53.13;102277.03;5023602;28;20037;-34
2023/05/13 00:08:13;;;;;;;19.65;13.63;;;;;;;21.57;52.84;102273.59;5020237;28;20176;-34
2023/05/13 00:10:40;;;;;;;20.02;13.30;;;;;;;21.56;52.73;102269.19;5021305;28;20049;-34
2023/05/13 00:13:07;;;;;;;19.20;13.13;;;;;;;21.55;52.88;102270.19;5019455;28;20053;-35
2023/05/13 00:15:33;;;;;;;25.23;14.43;;;;;;;21.54;52.82;102273.03;5022640;28;20117;-34
2023/05/13 00:18:00;;;;;;;18.25;12.90;;;;;;;21.52;52.80;102273.19;5021222;28;20132;-34
2023/05/13 00:20:29;;;;;;;20.20;14.02;;;;;;;21.51;52.70;102276.00;5020165;28;20046;-34
2023/05/13 00:22:56;;;;;;;18.70;12.80;;;;;;;21.50;53.04;102268.91;5018832;28;20053;-34
2023/05/13 00:25:22;;;;;;;19.20;13.80;;;;;;;21.49;52.83;102272.59;5023657;28;20073;-34
2023/05/13 00:27:50;;;;;;;18.52;13.32;;;;;;;21.47;53.05;102266.47;5022194;28;20115;-35
2023/05/13 00:30:16;;;;;;;20.60;13.80;;;;;;;21.46;53.17;102273.72;5021111;28;20529;-34
2023/05/13 00:32:43;;;;;;;19.65;13.02;;;;;;;21.45;53.16;102269.34;5019754;28;20365;-34
2023/05/13 00:35:10;;;;;;;18.05;12.43;;;;;;;21.43;53.02;102268.66;5035667;28;20103;-34
2023/05/13 00:37:36;;;;;;;19.77;13.18;;;;;;;21.42;52.79;102266.91;5021457;28;20059;-34
2023/05/13 00:40:03;;;;;;;18.02;12.80;;;;;;;21.41;52.91;102267.91;5023321;28;20045;-34
2023/05/13 00:42:30;;;;;;;19.10;13.45;;;;;;;21.39;53.25;102270.75;5022355;28;20072;-35
2023/05/13 00:44:56;;;;;;;19.83;14.10;;;;;;;21.38;53.02;102270.88;5021892;28;20158;-34
2023/05/13 00:47:23;;;;;;;18.85;12.43;;;;;;;21.37;53.21;102274.59;5019985;28;20053;-34
2023/05/13 00:49:50;;;;;;;21.95;13.02;;;;;;;21.35;53.09;102266.66;5020583;28;20060;-34
2023/05/13 00:52:17;;;;;;;17.88;12.15;;;;;;;21.35;52.99;102268.50;5022748;28;20049;-34
2023/05/13 00:54:44;;;;;;;17.63;12.23;;;;;;;21.34;52.96;102266.78;5018131;28;20046;-34
2023/05/13 00:57:10;;;;;;;20.05;12.85;;;;;;;21.32;53.19;102269.63;5022038;28;20088;-35
2023/05/13 00:59:37;;;;;;;17.90;12.52;;;;;;;21.32;53.26;102279.53;5021524;28;20072;-34
2023/05/13 01:02:21;;;;;;;18.10;12.50;;;;;;;21.29;53.09;102277.94;5019618;28;20060;-34
2023/05/13 01:04:57;;;;;;;19.38;12.38;;;;;;;21.28;52.88;102275.41;5023299;28;20053;-34
2023/05/13 01:07:23;;;;;;;18.30;12.45;;;;;;;21.27;53.07;102271.00;5025773;28;20510;-34
2023/05/13 01:10:10;;;;;;;17.42;12.35;;;;;;;21.23;53.01;102266.84;5025215;28;20053;-34
2023/05/13 01:12:42;;;;;;;16.33;11.25;;;;;;;21.20;53.27;102263.47;5024695;28;20064;-34
2023/05/13 01:15:14;;;;;;;18.50;12.48;;;;;;;21.20;53.13;102262.63;5026240;28;20459;-34
2023/05/13 01:17:52;;;;;;;16.13;11.15;;;;;;;21.18;53.50;102260.03;5025290;28;20084;-34
2023/05/13 01:20:23;;;;;;;18.20;12.52;;;;;;;21.17;52.92;102254.81;5023114;28;20100;-34
2023/05/13 01:22:50;;;;;;;16.48;10.95;;;;;;;21.16;53.15;102255.81;5023610;28;20057;-34
2023/05/13 01:25:16;;;;;;;17.83;11.70;;;;;;;21.15;53.02;102256.81;5026292;28;20049;-34
2023/05/13 01:27:43;;;;;;;18.10;12.52;;;;;;;21.13;53.01;102258.78;5019634;28;20341;-34
2023/05/13 01:30:10;;;;;;;17.50;11.13;;;;;;;21.11;53.12;102264.31;5020940;28;20060;-33
2023/05/13 01:32:37;;;;;;;15.77;10.35;;;;;;;21.10;53.10;102262.59;5023110;28;20072;-34
2023/05/13 01:35:06;;;;;;;16.55;11.25;;;;;;;21.10;53.14;102262.59;5018903;28;20433;-34
2023/05/13 01:37:32;;;;;;;17.00;11.30;;;;;;;21.09;53.34;102260.88;5019756;28;20076;-34
2023/05/13 01:39:59;;;;;;;15.50;10.80;;;;;;;21.08;53.03;102255.66;5022169;28;20177;-34
2023/05/13 01:42:28;;;;;;;17.05;11.52;;;;;;;21.06;53.83;102258.47;5018054;28;20425;-34
2023/05/13 01:44:56;;;;;;;16.05;11.18;;;;;;;21.05;53.37;102264.84;5019511;28;20088;-34
2023/05/13 01:47:22;;;;;;;16.25;10.35;;;;;;;21.04;53.64;102257.78;5023208;28;20433;-34
2023/05/13 01:49:49;;;;;;;15.52;11.10;;;;;;;21.04;53.38;102267.69;5023370;28;20054;-34
2023/05/13 01:52:16;;;;;;;16.55;11.73;;;;;;;21.02;53.91;102259.72;5024555;28;20336;-34
2023/05/13 01:54:42;;;;;;;14.60;10.35;;;;;;;21.01;53.12;102258.03;5025133;28;20041;-34
2023/05/13 01:57:09;;;;;;;18.25;11.27;;;;;;;21.01;53.83;102257.19;5024956;28;20136;-34
2023/05/13 01:59:36;;;;;;;15.38;10.82;;;;;;;21.00;53.30;102256.34;5025044;28;20080;-34
2023/05/13 02:02:03;;;;;;;16.83;10.63;;;;;;;20.98;53.78;102252.91;5024194;28;20060;-35
2023/05/13 02:04:29;;;;;;;15.00;10.30;;;;;;;20.96;53.84;102249.53;5037777;28;20116;-34
2023/05/13 02:06:56;;;;;;;16.98;10.63;;;;;;;20.96;53.70;102254.91;5024014;28;20041;-34
2023/05/13 02:09:22;;;;;;;14.27;9.75;;;;;;;20.95;54.00;102253.22;5022206;28;20054;-34
2023/05/13 02:11:50;;;;;;;14.85;9.98;;;;;;;20.94;53.64;102256.88;5022374;28;20424;-34
2023/05/13 02:14:16;;;;;;;14.77;10.57;;;;;;;20.93;53.44;102255.19;5024082;28;20045;-34
2023/05/13 02:16:43;;;;;;;15.48;10.65;;;;;;;20.93;53.70;102255.19;5023887;28;20045;-34
2023/05/13 02:19:09;;;;;;;15.13;10.07;;;;;;;20.91;53.34;102249.09;5038165;28;20053;-34
2023/05/13 02:21:36;;;;;;;14.10;10.23;;;;;;;20.90;53.58;102259.03;5023516;28;20050;-34
2023/05/13 02:24:03;;;;;;;14.50;10.20;;;;;;;20.90;53.98;102256.34;5024189;28;20069;-34
2023/05/13 02:26:30;;;;;;;13.52;9.73;;;;;;;20.89;53.99;102259.16;5026015;28;20049;-34
2023/05/13 02:28:56;;;;;;;14.85;10.20;;;;;;;20.88;53.65;102254.75;5022346;28;20056;-34
2023/05/13 02:31:23;;;;;;;13.35;9.50;;;;;;;20.86;53.81;102252.19;5019493;28;20068;-34
2023/05/13 02:33:49;;;;;;;14.75;9.73;;;;;;;20.86;54.04;102248.63;5024519;28;20088;-34
2023/05/13 02:36:16;;;;;;;14.90;10.20;;;;;;;20.86;53.81;102246.78;5025433;28;20476;-34
2023/05/13 02:38:42;;;;;;;15.05;9.93;;;;;;;20.84;53.77;102254.19;5022017;28;20103;-34
2023/05/13 02:41:09;;;;;;;14.75;9.98;;;;;;;20.83;54.33;102252.47;5025526;28;20049;-34
2023/05/13 02:43:36;;;;;;;14.35;9.73;;;;;;;20.83;53.98;102254.31;5022936;28;20061;-34
2023/05/13 02:46:03;;;;;;;13.02;9.70;;;;;;;20.83;53.95;102248.94;5027067;28;20041;-33
2023/05/13 02:48:29;;;;;;;15.48;9.93;;;;;;;20.80;54.20;102251.91;5024183;28;20049;-34
2023/05/13 02:50:56;;;;;;;13.98;9.80;;;;;;;20.79;53.83;102251.06;5024195;28;20344;-34
2023/05/13 02:53:23;;;;;;;13.40;9.15;;;;;;;20.79;54.51;102252.91;5019897;28;20436;-34
2023/05/13 02:55:49;;;;;;;12.60;9.02;;;;;;;20.78;54.09;102251.16;5024115;28;20438;-34
2023/05/13 02:58:16;;;;;;;12.90;8.73;;;;;;;20.77;54.21;102252.16;5018822;28;20475;-34
2023/05/13 03:00:42;;;;;;;12.30;8.93;;;;;;;20.76;54.20;102259.41;5022730;28;20068;-34
2023/05/13 03:03:09;;;;;;;14.50;8.88;;;;;;;20.75;54.27;102255.00;5021240;28;20144;-34
2023/05/13 03:05:36;;;;;;;12.95;9.15;;;;;;;20.74;53.82;102255.97;5025474;28;20045;-34
2023/05/13 03:08:03;;;;;;;13.23;9.32;;;;;;;20.73;54.16;102261.50;5027787;28;20057;-34
2023/05/13 03:10:30;;;;;;;11.32;8.48;;;;;;;20.73;54.17;102254.28;5029473;28;20049;-34
2023/05/13 03:12:56;;;;;;;12.45;8.68;;;;;;;20.72;54.24;102254.44;5026349;28;20554;-34
2023/05/13 03:15:23;;;;;;;12.95;9.23;;;;;;;20.72;54.04;102257.13;5034658;28;20433;-34
2023/05/13 03:17:49;;;;;;;11.02;8.18;;;;;;;20.70;54.56;102260.81;5023837;28;20084;-34
2023/05/13 03:20:16;;;;;;;12.80;8.57;;;;;;;20.69;54.13;102256.38;5021095;28;20111;-34
2023/05/13 03:22:43;;;;;;;13.75;9.07;;;;;;;20.69;54.61;102256.38;5022830;28;20052;-34
2023/05/13 03:25:10;;;;;;;12.00;8.93;;;;;;;20.68;54.36;102264.63;5021889;28;20045;-34
2023/05/13 03:27:37;;;;;;;11.13;8.13;;;;;;;20.68;54.29;102259.22;5023367;28;20045;-34
2023/05/13 03:30:04;;;;;;;13.57;8.68;;;;;;;20.67;54.24;102258.38;5022213;28;20061;-35
2023/05/13 03:32:31;;;;;;;10.93;7.97;;;;;;;20.65;54.50;102260.34;5025865;28;20492;-35
2023/05/13 03:34:59;;;;;;;12.43;7.95;;;;;;;20.65;54.27;102262.19;5023758;28;20049;-34
2023/05/13 03:37:26;;;;;;;11.95;8.52;;;;;;;20.64;54.83;102264.03;5024035;28;20107;-34
2023/05/13 03:39:53;;;;;;;12.48;8.73;;;;;;;20.63;54.30;102267.72;5023983;28;20077;-34
2023/05/13 03:42:19;;;;;;;12.02;8.38;;;;;;;20.62;54.68;102267.84;5018650;28;20057;-34
2023/05/13 03:44:46;;;;;;;13.30;8.23;;;;;;;20.62;54.78;102265.16;5022057;28;20058;-35
2023/05/13 03:47:13;;;;;;;10.93;7.57;;;;;;;20.62;54.43;102275.94;5019950;28;20103;-34
2023/05/13 03:49:39;;;;;;;11.35;7.93;;;;;;;20.60;54.29;102270.69;5020495;28;20465;-34
2023/05/13 03:52:09;;;;;;;10.95;7.32;;;;;;;20.61;54.61;102266.16;5024244;28;20060;-34
2023/05/13 03:54:35;;;;;;;10.82;7.47;;;;;;;20.60;54.19;102267.16;5020172;28;20056;-36
2023/05/13 03:57:02;;;;;;;11.18;7.45;;;;;;;20.58;54.37;102270.00;5022555;28;20122;-34
2023/05/13 03:59:28;;;;;;;11.05;7.82;;;;;;;20.58;54.28;102272.69;5023166;28;20084;-34
2023/05/13 04:01:55;;;;;;;11.15;7.78;;;;;;;20.57;54.64;102270.94;5020111;28;20053;-34
2023/05/13 04:04:22;;;;;;;12.10;7.65;;;;;;;20.56;54.63;102277.34;5017814;28;20492;-34
2023/05/13 04:06:48;;;;;;;11.20;7.97;;;;;;;20.57;54.39;102280.88;5020065;28;20334;-34
2023/05/13 04:09:15;;;;;;;9.57;7.00;;;;;;;20.55;54.33;102278.34;5022441;28;20056;-34
2023/05/13 04:11:41;;;;;;;11.35;8.02;;;;;;;20.55;54.66;102280.19;5021259;28;20080;-33
2023/05/13 04:14:08;;;;;;;8.75;6.35;;;;;;;20.54;54.96;102282.00;5021743;28;20049;-34
2023/05/13 04:16:35;;;;;;;11.60;7.50;;;;;;;20.54;55.04;102276.59;5019011;28;20327;-34
2023/05/13 04:19:01;;;;;;;11.30;7.57;;;;;;;20.53;55.14;102276.75;5022463;28;20490;-34
2023/05/13 04:21:28;;;;;;;12.95;6.95;;;;;;;20.53;54.76;102280.28;5021623;28;20330;-33
2023/05/13 04:23:55;;;;;;;10.13;7.45;;;;;;;20.54;55.00;102273.06;5022417;28;20061;-34
2023/05/13 04:26:21;;;;;;;9.60;7.10;;;;;;;20.52;54.67;102273.22;5022158;28;20041;-34
2023/05/13 04:28:48;;;;;;;8.70;6.70;;;;;;;20.53;54.54;102280.28;5030879;28;20056;-34
2023/05/13 04:31:14;;;;;;;9.48;7.20;;;;;;;20.53;54.94;102279.44;5020489;28;20690;-34
2023/05/13 04:33:41;;;;;;;10.43;6.93;;;;;;;20.53;54.92;102285.69;5019787;28;20803;-34
2023/05/13 04:36:08;;;;;;;9.75;6.85;;;;;;;20.53;54.70;102274.06;5020577;28;20048;-34
2023/05/13 04:38:34;;;;;;;10.82;7.57;;;;;;;20.53;55.08;102284.84;5018316;28;20076;-34
2023/05/13 04:41:01;;;;;;;9.45;6.68;;;;;;;20.54;54.50;102275.75;5023009;28;20041;-34
2023/05/13 04:43:28;;;;;;;8.35;6.18;;;;;;;20.54;54.66;102283.84;5018532;28;20060;-34
2023/05/13 04:45:54;;;;;;;8.65;6.55;;;;;;;20.55;54.75;102286.41;5024620;28;20048;-34
2023/05/13 04:48:21;;;;;;;8.82;6.30;;;;;;;20.57;55.24;102299.75;5019134;28;20077;-33
2023/05/13 04:50:49;;;;;;;8.90;6.90;;;;;;;20.57;55.08;102295.19;5021904;28;20053;-34
2023/05/13 04:53:16;;;;;;;9.95;6.55;;;;;;;20.58;54.70;102296.94;5019068;28;20099;-33
2023/05/13 04:55:46;;;;;;;7.55;5.93;;;;;;;20.60;54.59;102294.94;5021650;28;20056;-33
2023/05/13 04:58:13;;;;;;;8.85;6.22;;;;;;;20.61;54.37;102298.47;5018898;28;20042;-35
2023/05/13 05:00:39;;;;;;;10.32;6.70;;;;;;;20.64;54.60;102300.91;5018950;28;20053;-34
2023/05/13 05:03:06;;;;;;;8.65;6.32;;;;;;;20.64;55.06;102304.44;5019456;28;20076;-34
2023/05/13 05:05:32;;;;;;;8.73;5.72;;;;;;;20.65;55.03;102300.75;5023360;28;20155;-34
2023/05/13 05:07:59;;;;;;;8.38;5.97;;;;;;;20.67;54.17;102306.88;5024391;28;20045;-34
2023/05/13 05:10:26;;;;;;;8.50;5.93;;;;;;;20.69;54.31;102310.28;5023984;28;20478;-34
2023/05/13 05:12:53;;;;;;;8.77;6.15;;;;;;;20.70;54.37;102312.00;5025340;28;20132;-34
2023/05/13 05:15:19;;;;;;;8.13;5.85;;;;;;;20.73;54.08;102318.09;5023813;28;20053;-34
2023/05/13 05:17:46;;;;;;;7.53;5.68;;;;;;;20.74;54.25;102314.41;5025028;28;20128;-34
2023/05/13 05:20:13;;;;;;;7.20;5.47;;;;;;;20.76;54.65;102318.69;5022503;28;20133;-34
2023/05/13 05:22:40;;;;;;;8.02;6.05;;;;;;;20.78;54.24;102311.31;5027968;28;20045;-34
2023/05/13 05:25:09;;;;;;;8.50;6.15;;;;;;;20.80;54.12;102308.50;5028292;28;20353;-34
2023/05/13 05:27:35;;;;;;;8.10;5.80;;;;;;;20.81;54.04;102302.94;5028137;28;20429;-34
2023/05/13 05:30:02;;;;;;;9.95;6.35;;;;;;;20.83;54.23;102310.91;5026635;28;20053;-34
2023/05/13 05:32:29;;;;;;;8.20;5.57;;;;;;;20.85;54.04;102308.94;5025514;28;20053;-36
2023/05/13 05:34:55;;;;;;;8.05;5.50;;;;;;;20.85;54.21;102315.16;5022444;28;20140;-33
2023/05/13 05:37:22;;;;;;;6.90;5.50;;;;;;;20.88;54.19;102314.91;5024964;28;20047;-37
2023/05/13 05:39:48;;;;;;;7.55;5.82;;;;;;;20.88;54.21;102311.34;5024233;28;20149;-34
2023/05/13 05:42:15;;;;;;;6.75;5.00;;;;;;;20.90;53.81;102303.97;5019093;28;20076;-34
2023/05/13 05:44:42;;;;;;;7.35;5.15;;;;;;;20.90;53.87;102304.84;5021828;28;20445;-34
2023/05/13 05:47:08;;;;;;;8.23;5.45;;;;;;;20.92;53.82;102307.41;5021908;28;20047;-33
2023/05/13 05:49:35;;;;;;;7.55;5.68;;;;;;;20.93;53.80;102303.69;5024484;28;20136;-33
2023/05/13 05:52:02;;;;;;;8.05;5.20;;;;;;;20.93;53.53;102309.09;5026341;28;20056;-33
2023/05/13 05:54:29;;;;;;;11.48;5.68;;;;;;;20.95;53.59;102307.97;5022819;28;20059;-33
2023/05/13 05:56:56;;;;;;;7.80;5.47;;;;;;;20.96;53.77;102303.44;5022709;28;20057;-34
2023/05/13 05:59:22;;;;;;;6.78;5.20;;;;;;;20.98;53.94;102309.53;5025424;28;20145;-34
2023/05/13 06:01:49;;;;;;;8.48;6.18;;;;;;;20.99;53.92;102313.94;5029979;28;20053;-34
2023/05/13 06:04:16;;;;;;;8.30;5.78;;;;;;;20.99;53.28;102308.56;5027592;28;20053;-33
2023/05/13 06:06:42;;;;;;;8.05;6.28;;;;;;;21.01;53.50;102314.66;5026023;28;20073;-34
2023/05/13 06:09:09;;;;;;;8.23;5.82;;;;;;;21.01;53.63;102317.34;5028461;28;20046;-33
2023/05/13 06:11:36;;;;;;;9.82;6.22;;;;;;;21.03;53.61;102317.22;5024434;28;20052;-34
2023/05/13 06:14:02;;;;;;;8.75;6.32;;;;;;;21.03;53.09;102323.47;5030574;28;20045;-34
2023/05/13 06:16:29;;;;;;;7.50;5.85;;;;;;;21.05;53.52;102309.84;5023409;28;20164;-34
2023/05/13 06:18:56;;;;;;;10.63;6.57;;;;;;;21.04;53.17;102311.69;5022758;28;20447;-34
2023/05/13 06:21:22;;;;;;;10.07;6.55;;;;;;;21.05;53.57;102313.38;5024941;28;20337;-34
2023/05/13 06:23:49;;;;;;;17.85;12.07;;;;;;;21.07;53.48;102310.56;5024548;28;20049;-34
2023/05/13 06:26:16;;;;;;;18.52;11.00;;;;;;;21.07;52.91;102311.41;5026056;28;20060;-34
2023/05/13 06:28:42;;;;;;;17.98;11.10;;;;;;;21.08;53.15;102307.72;5027985;28;20068;-34
2023/05/13 06:31:09;;;;;;;19.65;11.50;;;;;;;21.09;52.72;102309.41;5027671;28;20081;-34
2023/05/13 06:33:36;;;;;;;19.17;10.95;;;;;;;21.10;52.82;102321.06;5023281;28;20520;-34
2023/05/13 06:36:03;;;;;;;18.73;11.60;;;;;;;21.10;52.72;102316.50;5027153;28;20059;-34
2023/05/13 06:38:30;;;;;;;14.15;9.85;;;;;;;21.11;52.78;102317.38;5022070;28;20057;-34
2023/05/13 06:40:56;;;;;;;15.85;10.90;;;;;;;21.11;52.58;102318.25;5022265;28;20145;-34
2023/05/13 06:43:23;;;;;;;16.75;11.18;;;;;;;21.11;52.58;102318.25;5021075;28;21128;-34
2023/05/13 06:45:49;;;;;;;16.63;10.48;;;;;;;21.13;52.89;102326.19;5021697;28;20495;-34
2023/05/13 06:48:16;;;;;;;18.38;12.10;;;;;;;21.12;52.71;102324.47;5021226;28;20044;-34
2023/05/13 06:50:42;;;;;;;17.15;11.50;;;;;;;21.13;52.91;102324.31;5023415;28;20065;-34
2023/05/13 06:53:12;;;;;;;21.02;13.10;;;;;;;21.13;52.83;102316.25;5022148;28;20128;-34
2023/05/13 06:55:40;;;;;;;20.75;12.18;;;;;;;21.15;52.96;102318.81;5022712;28;20073;-35
2023/05/13 06:58:07;;;;;;;18.38;12.18;;;;;;;21.14;52.76;102311.69;5023782;28;20049;-34
2023/05/13 07:00:39;;;;;;;23.23;13.70;;;;;;;21.14;52.82;102314.38;5022937;28;20690;-34
2023/05/13 07:03:06;;;;;;;17.60;11.95;;;;;;;21.14;53.21;102319.78;5018528;28;20464;-34
2023/05/13 07:05:33;;;;;;;17.35;10.35;;;;;;;21.15;52.79;102316.13;5022658;28;20152;-34
2023/05/13 07:08:05;;;;;;;21.60;12.63;;;;;;;21.15;52.52;102321.50;5023850;28;20052;-34
2023/05/13 07:10:32;;;;;;;23.98;15.15;;;;;;;21.14;52.98;102317.94;5022378;28;20433;-34
2023/05/13 07:13:00;;;;;;;28.95;16.25;;;;;;;21.14;52.95;102317.94;5020960;28;21077;-34
2023/05/13 07:15:27;;;;;;;29.83;15.95;;;;;;;21.16;53.23;102312.44;5021019;28;20057;-34
2023/05/13 07:17:54;;;;;;;26.13;14.90;;;;;;;21.16;53.36;102313.28;5024353;28;20385;-34
2023/05/13 07:20:22;;;;;;;28.23;16.08;;;;;;;21.16;53.04;102317.81;5022617;28;20046;-33
2023/05/13 07:22:49;;;;;;;28.58;14.68;;;;;;;21.17;53.11;102327.59;5016258;28;20133;-34
2023/05/13 07:25:17;;;;;;;25.65;14.60;;;;;;;21.17;53.24;102316.81;5023257;28;20552;-34
2023/05/13 07:27:44;;;;;;;27.23;15.07;;;;;;;21.18;53.13;102313.13;5027266;28;20059;-34
2023/05/13 07:30:11;;;;;;;29.00;15.98;;;;;;;21.18;53.17;102318.50;5027534;28;20559;-34
2023/05/13 07:32:38;;;;;;;28.73;16.23;;;;;;;21.18;53.06;102322.06;5027285;28;20049;-34
2023/05/13 07:35:06;;;;;;;30.98;17.73;;;;;;;21.19;53.50;102320.25;5027928;28;20067;-34
2023/05/13 07:37:32;;;;;;;31.85;17.35;;;;;;;21.18;53.34;102324.75;5025240;28;20671;-34
2023/05/13 07:39:59;;;;;;;31.40;17.35;;;;;;;21.19;53.31;102323.78;5019936;28;20450;-34
2023/05/13 07:42:27;;;;;;;35.05;20.55;;;;;;;21.20;53.42;102330.03;5021878;28;20060;-34
2023/05/13 07:44:53;;;;;;;44.30;22.75;;;;;;;21.20;53.23;102325.50;5020544;28;20057;-34
2023/05/13 07:47:20;;;;;;;37.40;22.00;;;;;;;21.22;53.60;102327.19;5025449;28;20042;-34
2023/05/13 07:49:46;;;;;;;36.50;21.98;;;;;;;21.22;53.43;102330.72;5023856;28;20059;-34
2023/05/13 07:52:13;;;;;;;38.63;22.02;;;;;;;21.22;53.17;102333.44;5027352;28;20068;-34
2023/05/13 07:54:39;;;;;;;37.15;21.83;;;;;;;21.22;53.61;102327.19;5023578;28;21001;-34
2023/05/13 07:57:06;;;;;;;43.30;23.75;;;;;;;21.25;53.36;102335.00;5025744;28;20176;-34
2023/05/13 07:59:33;;;;;;;42.38;24.85;;;;;;;21.23;53.39;102327.06;5027195;28;20045;-34
2023/05/13 08:01:59;;;;;;;40.22;23.75;;;;;;;21.24;53.44;102325.22;5024392;28;20398;-34
2023/05/13 08:04:26;;;;;;;47.25;26.25;;;;;;;21.26;53.74;102320.53;5024984;28;20045;-33
2023/05/13 08:06:53;;;;;;;47.28;26.27;;;;;;;21.26;53.48;102325.91;5027670;28;20059;-34
2023/05/13 08:09:19;;;;;;;47.15;26.58;;;;;;;21.26;53.46;102323.22;5028124;28;20037;-34
2023/05/13 08:11:46;;;;;;;42.40;26.23;;;;;;;21.27;53.19;102330.34;5026042;28;20356;-34
2023/05/13 08:14:12;;;;;;;47.05;26.88;;;;;;;21.26;53.67;102326.75;5021711;28;20144;-34
2023/05/13 08:16:39;;;;;;;42.70;24.70;;;;;;;21.27;53.40;102328.50;5020096;28;20081;-34
2023/05/13 08:19:06;;;;;;;41.97;23.40;;;;;;;21.28;53.61;102329.34;5022976;28;20095;-34
2023/05/13 08:21:33;;;;;;;42.13;24.65;;;;;;;21.28;53.60;102330.19;5020602;28;20168;-34
2023/05/13 08:23:59;;;;;;;43.83;23.95;;;;;;;21.29;53.22;102333.72;5022177;28;20073;-35
2023/05/13 08:26:26;;;;;;;41.72;24.35;;;;;;;21.30;53.64;102332.72;5022352;28;20059;-35
2023/05/13 08:28:53;;;;;;;39.05;24.65;;;;;;;21.30;53.57;102332.72;5024701;28;20049;-34
2023/05/13 08:31:23;;;;;;;40.70;24.17;;;;;;;21.31;53.18;102332.63;5025664;28;20381;-33
2023/05/13 08:33:50;;;;;;;41.00;24.00;;;;;;;21.31;53.19;102335.31;5025818;28;20395;-34
2023/05/13 08:36:17;;;;;;;45.03;24.85;;;;;;;21.32;53.07;102330.78;5026192;28;20323;-34
2023/05/13 08:38:43;;;;;;;41.15;23.98;;;;;;;21.33;53.37;102333.34;5025280;28;20052;-34
2023/05/13 08:41:14;;;;;;;41.50;24.85;;;;;;;21.32;53.24;102334.34;5022127;28;20042;-34
2023/05/13 08:43:45;;;;;;;39.47;24.13;;;;;;;21.33;53.22;102338.75;5025676;28;20085;-36
2023/05/13 08:46:15;;;;;;;40.35;24.92;;;;;;;21.34;52.96;102334.19;5026246;28;20049;-34
2023/05/13 08:48:42;;;;;;;46.08;26.63;;;;;;;21.34;53.12;102328.81;5026997;28;20639;-34
2023/05/13 08:51:09;;;;;;;41.45;25.67;;;;;;;21.35;52.93;102339.47;5028089;28;20054;-34
2023/05/13 08:53:37;;;;;;;43.50;25.90;;;;;;;21.35;53.30;102336.78;5027096;28;20183;-34
2023/05/13 08:56:06;;;;;;;46.15;26.83;;;;;;;21.36;52.89;102326.84;5024332;28;20140;-35
2023/05/13 08:58:33;;;;;;;46.78;26.83;;;;;;;21.37;52.95;102331.22;5026098;28;20049;-34
2023/05/13 09:01:00;;;;;;;46.85;27.15;;;;;;;21.37;53.09;102332.06;5024539;28;20049;-35
2023/05/13 09:03:28;;;;;;;40.53;24.58;;;;;;;21.37;53.24;102323.97;5021614;28;20057;-34
2023/05/13 09:05:54;;;;;;;41.13;25.10;;;;;;;21.38;52.85;102335.63;5025526;28;20053;-34
2023/05/13 09:08:21;;;;;;;44.42;25.95;;;;;;;21.38;53.19;102325.69;5023640;28;20451;-34
2023/05/13 09:10:48;;;;;;;45.78;25.63;;;;;;;21.40;53.25;102334.50;5025608;28;20045;-34
2023/05/13 09:13:16;;;;;;;48.00;26.92;;;;;;;21.41;52.81;102330.81;5023358;28;20042;-35
2023/05/13 09:15:43;;;;;;;47.80;27.77;;;;;;;21.43;53.58;102327.97;5025883;28;20089;-34
2023/05/13 09:18:11;;;;;;;45.50;27.08;;;;;;;21.43;52.90;102331.53;5024206;28;20439;-34
2023/05/13 09:20:38;;;;;;;50.83;27.42;;;;;;;21.46;53.11;102329.53;5023301;28;20476;-35
2023/05/13 09:23:07;;;;;;;47.05;27.58;;;;;;;21.47;52.92;102340.19;5022289;28;20079;-34
2023/05/13 09:25:35;;;;;;;47.42;27.40;;;;;;;21.50;53.36;102336.34;5026469;28;20137;-34
2023/05/13 09:28:04;;;;;;;47.25;28.65;;;;;;;21.53;53.13;102336.06;5024164;28;20150;-34
2023/05/13 09:30:40;;;;;;;47.05;27.48;;;;;;;21.56;53.05;102342.06;5025422;28;20053;-35
2023/05/13 09:33:20;;;;;;;42.28;25.83;;;;;;;21.59;52.70;102322.88;5024147;28;20050;-34
2023/05/13 09:35:52;;;;;;;44.53;26.65;;;;;;;21.64;52.92;102333.25;5022096;28;20421;-34
2023/05/13 09:38:21;;;;;;;40.92;25.63;;;;;;;21.68;52.84;102346.31;5025671;28;20331;-34
2023/05/13 09:40:58;;;;;;;42.67;26.80;;;;;;;21.72;52.98;102340.66;5023676;28;20056;-34
2023/05/13 09:43:27;;;;;;;42.17;25.20;;;;;;;21.77;52.56;102336.50;5022783;28;20153;-33
2023/05/13 09:45:56;;;;;;;38.17;24.67;;;;;;;21.80;52.54;102341.63;4984872;28;1092263;-34
2023/05/13 09:48:28;;;;;;;41.08;25.85;;;;;;;21.84;52.80;102347.59;5024368;28;20063;-35
2023/05/13 09:50:56;;;;;;;41.28;25.70;;;;;;;21.89;53.02;102353.41;5025621;28;20131;-34
2023/05/13 09:53:27;;;;;;;43.42;25.45;;;;;;;21.92;52.57;102339.66;5027819;28;20050;-34
2023/05/13 09:55:55;;;;;;;44.95;27.10;;;;;;;21.96;52.70;102340.22;5023406;28;20099;-34
2023/05/13 09:58:24;;;;;;;44.00;25.67;;;;;;;22.00;52.34;102336.22;5025567;28;21163;-34
2023/05/13 10:00:51;;;;;;;45.63;27.05;;;;;;;22.02;52.41;102340.47;5024756;28;20054;-34
2023/05/13 10:03:18;;;;;;;40.45;24.95;;;;;;;22.05;52.36;102344.75;5026391;28;20117;-35
2023/05/13 10:05:46;;;;;;;44.33;26.48;;;;;;;22.07;52.36;102338.22;5025745;28;20515;-34
2023/05/13 10:08:14;;;;;;;43.38;26.08;;;;;;;22.10;52.41;102342.47;5027616;28;20049;-34
2023/05/13 10:10:44;;;;;;;44.60;26.42;;;;;;;22.11;52.29;102328.84;5026604;28;20057;-34
2023/05/13 10:13:14;;;;;;;46.92;26.70;;;;;;;22.14;52.03;102327.69;5026079;28;20429;-33
2023/05/13 10:15:49;;;;;;;45.45;26.10;;;;;;;22.16;52.25;102326.56;5027089;28;20129;-34
2023/05/13 10:18:16;;;;;;;44.67;27.08;;;;;;;22.22;52.21;102324.28;5026029;28;20056;-33
2023/05/13 10:20:43;;;;;;;44.20;27.33;;;;;;;22.25;52.14;102329.41;5027990;28;20052;-34
2023/05/13 10:23:11;;;;;;;42.80;26.58;;;;;;;22.28;51.83;102329.13;5027808;28;20046;-34
2023/05/13 10:25:38;;;;;;;40.53;25.17;;;;;;;22.31;52.02;102320.69;5029323;28;20128;-34
2023/05/13 10:28:05;;;;;;;42.50;25.88;;;;;;;22.35;51.78;102325.69;5026178;28;20048;-34
2023/05/13 10:30:34;;;;;;;42.58;25.67;;;;;;;22.38;51.78;102324.53;5027450;28;20172;-34
2023/05/13 10:33:02;;;;;;;44.45;27.42;;;;;;;22.40;51.58;102319.84;5028367;28;20426;-34
2023/05/13 10:35:35;;;;;;;38.78;24.40;;;;;;;22.42;51.85;102326.78;5029905;28;20056;-35
2023/05/13 10:38:43;;;;;;;39.20;24.05;;;;;;;22.46;51.53;102326.50;5029071;28;20051;-34
2023/05/13 10:41:36;;;;;;;41.72;25.38;;;;;;;22.49;51.44;102318.09;5027963;28;20128;-34
2023/05/13 10:44:02;;;;;;;42.42;26.58;;;;;;;22.54;51.58;102313.94;5012156;28;20078;-34
2023/05/13 10:46:29;;;;;;;41.45;24.85;;;;;;;22.55;51.37;102314.78;5027499;28;20149;-34
2023/05/13 10:48:58;;;;;;;43.10;25.17;;;;;;;22.57;51.67;102313.66;5028636;28;20409;-34
2023/05/13 10:51:25;;;;;;;41.63;24.95;;;;;;;22.61;51.33;102315.06;5029236;28;20345;-35
2023/05/13 10:53:54;;;;;;;39.22;24.88;;;;;;;22.63;51.36;102309.50;5028925;28;20049;-34
2023/05/13 10:56:23;;;;;;;42.60;25.80;;;;;;;22.65;51.36;102305.66;5025921;28;20060;-34
2023/05/13 10:59:04;;;;;;;37.65;23.83;;;;;;;22.66;51.54;102304.66;5024835;28;20177;-35
2023/05/13 11:01:42;;;;;;;37.55;23.45;;;;;;;22.71;51.46;102308.75;5026783;28;20052;-34
2023/05/13 11:04:18;;;;;;;39.35;23.50;;;;;;;22.72;51.67;102308.63;5024962;28;20072;-34
2023/05/13 11:06:46;;;;;;;39.53;24.00;;;;;;;22.75;51.60;102302.91;5027024;28;20067;-34
2023/05/13 11:09:28;;;;;;;36.50;21.98;;;;;;;22.77;51.26;102303.63;5029396;28;20504;-33
2023/05/13 11:11:56;;;;;;;36.90;23.45;;;;;;;22.80;51.09;102303.31;5028727;28;20053;-34
2023/05/13 11:14:29;;;;;;;36.13;22.55;;;;;;;22.82;50.94;102295.91;5029613;28;20604;-34
2023/05/13 11:17:01;;;;;;;37.78;23.63;;;;;;;22.84;50.92;102304.72;5024252;28;20414;-35